Time;durP1;ratioP1;P1;durP2;ratioP2;P2;SDS_P1;SDS_P2;PMS_P1;PMS_P2;Temp;Humidity;BMP_temperature;BMP_pressure;BME280_temperature;BME280_humidity;BME280_pressure;Samples;Min_cycle;Max_cycle;Signal;HPM_P1;HPM_P2
2022/10/24 00:01:25;;;;;;;;;;;;;;;8.80;100.00;99435.66;1718728;82;20446;-67
2022/10/24 00:03:51;;;;;;;;;;;;;;;8.69;100.00;99433.07;1720700;82;20100;-67
2022/10/24 00:06:19;;;;;;;;;;;;;;;8.72;100.00;99435.53;1725201;82;20111;-67
2022/10/24 00:08:46;;;;;;;;;;;;;;;8.72;100.00;99431.63;1721291;82;20279;-67
2022/10/24 00:11:15;;;;;;;;;;;;;;;8.69;100.00;99426.56;1721221;82;21279;-67
2022/10/24 00:13:42;;;;;;;;;;;;;;;8.69;100.00;99421.36;1718716;83;20450;-67
2022/10/24 00:16:09;;;;;;;;;;;;;;;8.66;100.00;99413.69;1718355;83;20470;-67
2022/10/24 00:18:35;;;;;;;;;;;;;;;8.63;100.00;99426.84;1718990;81;20164;-67
2022/10/24 00:21:02;;;;;;;;;;;;;;;8.67;100.00;99414.06;1719434;81;20128;-67
2022/10/24 00:23:28;;;;;;;;;;;;;;;8.66;100.00;99413.69;1720846;82;22516;-67
2022/10/24 00:25:55;;;;;;;;;;;;;;;8.64;100.00;99420.70;1721387;81;20140;-67
2022/10/24 00:28:22;;;;;;;;;;;;;;;8.59;100.00;99417.45;1719573;81;20164;-68
2022/10/24 00:30:52;;;;;;;;;;;;;;;8.56;100.00;99411.55;1721070;82;20885;-68
2022/10/24 00:33:18;;;;;;;;;;;;;;;8.51;100.00;99406.53;1718284;83;20191;-67
2022/10/24 00:35:45;;;;;;;;;;;;;;;8.50;100.00;99400.95;1725294;83;20887;-67
2022/10/24 00:38:11;;;;;;;;;;;;;;;8.51;100.00;99406.11;1722694;82;20285;-67
2022/10/24 00:40:38;;;;;;;;;;;;;;;8.51;100.00;99401.33;1719507;83;20088;-67
2022/10/24 00:43:06;;;;;;;;;;;;;;;8.54;100.00;99390.78;1722708;81;20478;-67
2022/10/24 00:45:41;;;;;;;;;;;;;;;8.56;100.00;99382.92;1718314;82;20183;-67
2022/10/24 00:48:17;;;;;;;;;;;;;;;8.57;100.00;99378.97;1718794;82;22135;-67
2022/10/24 00:50:44;;;;;;;;;;;;;;;8.58;100.00;99373.30;1721156;81;20155;-68
2022/10/24 00:53:11;;;;;;;;;;;;;;;8.59;100.00;99370.61;1719351;81;20096;-68
2022/10/24 00:55:38;;;;;;;;;;;;;;;8.59;100.00;99359.36;1720822;83;20168;-67
2022/10/24 00:58:05;;;;;;;;;;;;;;;8.62;100.00;99360.06;1720696;82;20193;-67
2022/10/24 01:00:33;;;;;;;;;;;;;;;8.65;100.00;99357.78;1723434;82;21408;-67
2022/10/24 01:03:00;;;;;;;;;;;;;;;8.79;100.00;99354.09;1724027;82;20215;-67
2022/10/24 01:05:30;;;;;;;;;;;;;;;8.85;100.00;99351.66;1724385;81;20100;-68
2022/10/24 01:08:03;;;;;;;;;;;;;;;8.89;100.00;99360.58;1717378;82;20835;-67
2022/10/24 01:10:38;;;;;;;;;;;;;;;8.95;100.00;99364.66;1718552;83;20128;-68
2022/10/24 01:13:17;;;;;;;;;;;;;;;9.00;100.00;99362.69;1720183;81;21334;-68
2022/10/24 01:15:50;;;;;;;;;;;;;;;9.07;100.00;99357.56;1718419;83;20213;-67
2022/10/24 01:18:35;;;;;;;;;;;;;;;9.15;100.00;99360.66;1724952;82;20116;-68
2022/10/24 01:21:23;;;;;;;;;;;;;;;9.18;100.00;99355.30;1719991;83;20169;-67
2022/10/24 01:23:55;;;;;;;;;;;;;;;9.25;100.00;99348.52;1721418;82;20285;-68
2022/10/24 01:26:57;;;;;;;;;;;;;;;9.33;100.00;99341.18;1718737;82;21169;-68
2022/10/24 01:29:49;;;;;;;;;;;;;;;9.35;100.00;99339.33;1718709;81;20148;-68
2022/10/24 01:32:35;;;;;;;;;;;;;;;9.41;100.00;99341.66;1723409;83;20565;-68
2022/10/24 01:35:08;;;;;;;;;;;;;;;9.48;100.00;99342.19;1721301;83;20152;-68
2022/10/24 01:37:52;;;;;;;;;;;;;;;9.58;100.00;99335.16;1715714;83;20497;-68
2022/10/24 01:40:31;;;;;;;;;;;;;;;9.67;100.00;99329.11;1723943;83;21656;-68
2022/10/24 01:43:01;;;;;;;;;;;;;;;9.73;100.00;99313.98;1717685;83;20588;-68
2022/10/24 01:45:30;;;;;;;;;;;;;;;9.82;100.00;99317.89;1724454;81;20176;-68
2022/10/24 01:47:59;;;;;;;;;;;;;;;9.89;100.00;99308.85;1713984;83;20169;-68
2022/10/24 01:50:26;;;;;;;;;;;;;;;9.94;100.00;99296.42;1718264;83;20243;-68
2022/10/24 01:52:54;;;;;;;;;;;;;;;9.96;100.00;99297.16;1717723;83;22323;-68
2022/10/24 01:55:21;;;;;;;;;;;;;;;9.95;100.00;99298.10;1721259;82;20097;-67
2022/10/24 01:57:47;;;;;;;;;;;;;;;9.94;100.00;99299.03;1720595;83;20147;-67
2022/10/24 02:00:17;;;;;;;;;;;;;;;9.95;100.00;99292.88;1722425;82;20190;-68
2022/10/24 02:02:47;;;;;;;;;;;;;;;9.94;100.00;99274.69;1716762;81;20159;-68
2022/10/24 02:05:26;;;;;;;;;;;;;;;9.94;100.00;99275.56;1719372;82;21101;-67
2022/10/24 02:07:56;;;;;;;;;;;;;;;9.93;100.00;99269.94;1726023;83;20148;-67
2022/10/24 02:10:32;;;;;;;;;;;;;;;9.92;100.00;99272.18;1721957;82;20179;-68
2022/10/24 02:13:01;;;;;;;;;;;;;;;9.93;100.00;99256.91;1723837;83;20266;-68
2022/10/24 02:15:30;;;;;;;;;;;;;;;9.90;100.00;99249.24;1723224;82;20171;-68
2022/10/24 02:17:57;;;;;;;;;;;;;;;9.90;100.00;99253.16;1719100;81;21066;-68
2022/10/24 02:20:30;;;;;;;;;;;;;;;9.88;100.00;99244.56;1722091;83;20128;-67
2022/10/24 02:23:00;;;;;;;;;;;;;;;9.84;100.00;99246.96;1720534;82;20452;-68
2022/10/24 02:25:33;;;;;;;;;;;;;;;9.79;100.00;99250.27;1723777;82;20169;-68
2022/10/24 02:28:15;;;;;;;;;;;;;;;9.81;100.00;99240.60;1723800;81;20207;-68
2022/10/24 02:30:47;;;;;;;;;;;;;;;9.86;100.00;99243.82;1726262;81;21098;-68
2022/10/24 02:33:14;;;;;;;;;;;;;;;9.81;100.00;99235.39;1726739;81;20089;-68
2022/10/24 02:35:42;;;;;;;;;;;;;;;9.79;100.00;99232.02;1726217;81;20135;-68
2022/10/24 02:38:17;;;;;;;;;;;;;;;9.89;100.00;99233.23;1723896;82;20269;-68
2022/10/24 02:40:45;;;;;;;;;;;;;;;9.85;100.00;99234.30;1723454;82;20140;-68
2022/10/24 02:43:12;;;;;;;;;;;;;;;9.94;100.00;99238.19;1722106;81;21073;-68
2022/10/24 02:45:39;;;;;;;;;;;;;;;9.81;100.00;99236.22;1723673;82;20157;-68
2022/10/24 02:48:09;;;;;;;;;;;;;;;9.81;100.00;99232.78;1724683;82;20167;-68
2022/10/24 02:50:37;;;;;;;;;;;;;;;9.80;100.00;99233.69;1725597;82;20084;-68
2022/10/24 02:53:03;;;;;;;;;;;;;;;9.79;100.00;99235.92;1723434;82;20167;-68
2022/10/24 02:55:30;;;;;;;;;;;;;;;9.77;100.00;99236.45;1728368;82;21938;-68
2022/10/24 02:57:56;;;;;;;;;;;;;;;9.80;100.00;99234.55;1727109;82;20571;-68
2022/10/24 03:00:23;;;;;;;;;;;;;;;9.76;100.00;99226.95;1722659;82;20177;-68
2022/10/24 03:02:49;;;;;;;;;;;;;;;9.73;100.00;99227.12;1726719;82;21028;-68
2022/10/24 03:05:15;;;;;;;;;;;;;;;9.76;100.00;99213.92;1728467;82;20187;-68
2022/10/24 03:07:42;;;;;;;;;;;;;;;9.71;100.00;99219.83;1727300;82;22637;-68
2022/10/24 03:10:08;;;;;;;;;;;;;;;9.72;100.00;99226.28;1720659;82;20093;-68
2022/10/24 03:12:35;;;;;;;;;;;;;;;9.72;100.00;99217.59;1729018;82;20469;-68
2022/10/24 03:15:01;;;;;;;;;;;;;;;9.72;100.00;99215.85;1724795;82;20088;-68
2022/10/24 03:17:28;;;;;;;;;;;;;;;9.80;100.00;99212.83;1720870;82;20488;-68
2022/10/24 03:19:54;;;;;;;;;;;;;;;9.76;100.00;99214.76;1727147;81;21211;-68
2022/10/24 03:22:20;;;;;;;;;;;;;;;9.81;100.00;99214.53;1728868;82;20104;-68
2022/10/24 03:24:47;;;;;;;;;;;;;;;9.78;100.00;99213.39;1724424;81;20503;-68
2022/10/24 03:27:14;;;;;;;;;;;;;;;9.78;100.00;99205.56;1723660;82;20452;-68
2022/10/24 03:29:41;;;;;;;;;;;;;;;9.84;100.00;99205.24;1719116;83;20127;-68
2022/10/24 03:32:07;;;;;;;;;;;;;;;9.83;100.00;99208.75;1701332;82;22706;-68
2022/10/24 03:34:34;;;;;;;;;;;;;;;9.83;100.00;99204.84;1708419;83;20315;-68
2022/10/24 03:37:00;;;;;;;;;;;;;;;9.79;100.00;99200.72;1696780;83;20141;-68
2022/10/24 03:39:27;;;;;;;;;;;;;;;9.82;100.00;99199.25;1698556;83;20087;-68
2022/10/24 03:41:53;;;;;;;;;;;;;;;9.84;100.00;99196.11;1704610;83;20125;-68
2022/10/24 03:44:19;;;;;;;;;;;;;;;9.83;100.00;99196.58;1700298;83;21981;-68
2022/10/24 03:46:46;;;;;;;;;;;;;;;9.80;100.00;99180.23;1702619;83;20123;-68
2022/10/24 03:49:12;;;;;;;;;;;;;;;9.83;100.00;99180.06;1704399;81;20503;-68
2022/10/24 03:51:38;;;;;;;;;;;;;;;9.86;100.00;99179.47;1704702;83;20150;-68
2022/10/24 03:54:05;;;;;;;;;;;;;;;9.75;100.00;99175.75;1699050;83;20143;-68
2022/10/24 03:56:31;;;;;;;;;;;;;;;9.72;100.00;99175.88;1711241;83;21221;-68
2022/10/24 03:58:57;;;;;;;;;;;;;;;9.70;100.00;99177.75;1717018;83;20170;-68
2022/10/24 04:01:24;;;;;;;;;;;;;;;9.73;100.00;99173.20;1693137;83;20131;-68
2022/10/24 04:03:50;;;;;;;;;;;;;;;9.73;100.00;99172.38;1693991;83;20182;-68
2022/10/24 04:06:16;;;;;;;;;;;;;;;9.77;100.00;99173.88;1691649;83;20112;-67
2022/10/24 04:08:43;;;;;;;;;;;;;;;9.78;100.00;99180.80;1696376;83;20993;-68
2022/10/24 04:11:09;;;;;;;;;;;;;;;9.78;100.00;99179.50;1705559;83;20116;-68
2022/10/24 04:13:36;;;;;;;;;;;;;;;9.76;100.00;99177.42;1702397;83;20561;-68
2022/10/24 04:16:02;;;;;;;;;;;;;;;9.71;100.00;99174.20;1672493;83;20949;-67
2022/10/24 04:18:28;;;;;;;;;;;;;;;9.61;100.00;99177.30;1692434;83;20103;-68
2022/10/24 04:20:55;;;;;;;;;;;;;;;9.60;100.00;99178.20;1708095;83;21455;-68
2022/10/24 04:23:21;;;;;;;;;;;;;;;9.59;100.00;99176.53;1695358;82;20429;-68
2022/10/24 04:25:48;;;;;;;;;;;;;;;9.66;100.00;99172.30;1702427;83;20430;-68
2022/10/24 04:28:14;;;;;;;;;;;;;;;9.70;100.00;99166.02;1718970;81;20170;-68
2022/10/24 04:30:41;;;;;;;;;;;;;;;9.71;100.00;99171.60;1717228;83;20520;-68
2022/10/24 04:33:08;;;;;;;;;;;;;;;9.70;100.00;99169.93;1716196;83;21144;-68
2022/10/24 04:35:34;;;;;;;;;;;;;;;9.69;100.00;99163.01;1718053;83;20711;-67
2022/10/24 04:38:01;;;;;;;;;;;;;;;9.69;100.00;99163.88;1714676;81;20424;-68
2022/10/24 04:40:27;;;;;;;;;;;;;;;9.69;100.00;99165.61;1725437;81;20136;-68
2022/10/24 04:42:54;;;;;;;;;;;;;;;9.70;100.00;99159.50;1717878;83;20175;-68
2022/10/24 04:45:20;;;;;;;;;;;;;;;9.71;100.00;99162.48;1706757;83;21103;-68
2022/10/24 04:47:46;;;;;;;;;;;;;;;9.70;100.00;99151.68;1719508;82;20433;-68
2022/10/24 04:50:13;;;;;;;;;;;;;;;9.71;100.00;99155.95;1722566;81;20101;-68
2022/10/24 04:52:39;;;;;;;;;;;;;;;9.72;100.00;99158.94;1724735;83;20169;-68
2022/10/24 04:55:06;;;;;;;;;;;;;;;9.73;100.00;99159.34;1724768;83;20104;-68
2022/10/24 04:57:34;;;;;;;;;;;;;;;9.72;100.00;99155.02;1721148;83;21100;-68
2022/10/24 05:00:01;;;;;;;;;;;;;;;9.71;100.00;99157.27;1716690;82;20449;-68
2022/10/24 05:02:28;;;;;;;;;;;;;;;9.71;100.00;99163.78;1718990;83;20137;-68
2022/10/24 05:04:54;;;;;;;;;;;;;;;9.72;100.00;99162.84;1712591;81;20158;-67
2022/10/24 05:07:20;;;;;;;;;;;;;;;9.68;100.00;99165.25;1716717;83;20228;-65
2022/10/24 05:09:47;;;;;;;;;;;;;;;9.69;100.00;99170.83;1721395;83;21896;-68
2022/10/24 05:12:13;;;;;;;;;;;;;;;9.69;100.00;99171.70;1713583;83;20159;-65
2022/10/24 05:14:39;;;;;;;;;;;;;;;9.67;100.00;99177.91;1719756;82;20101;-67
2022/10/24 05:17:06;;;;;;;;;;;;;;;9.64;100.00;99184.96;1720204;82;20120;-67
2022/10/24 05:19:32;;;;;;;;;;;;;;;9.63;100.00;99183.29;1718672;82;20200;-67
2022/10/24 05:21:59;;;;;;;;;;;;;;;9.76;100.00;99185.24;1719348;83;21548;-67
2022/10/24 05:24:25;;;;;;;;;;;;;;;9.77;100.00;99181.23;1721985;82;20124;-67
2022/10/24 05:26:51;;;;;;;;;;;;;;;9.73;100.00;99181.50;1723228;82;20460;-68
2022/10/24 05:29:18;;;;;;;;;;;;;;;9.74;100.00;99182.70;1721052;81;20276;-68
2022/10/24 05:31:44;;;;;;;;;;;;;;;9.71;100.00;99176.81;1721032;82;20122;-66
2022/10/24 05:34:11;;;;;;;;;;;;;;;9.70;100.00;99169.93;1719326;82;21350;-67
2022/10/24 05:36:37;;;;;;;;;;;;;;;9.69;100.00;99168.22;1727506;83;20426;-67
2022/10/24 05:39:04;;;;;;;;;;;;;;;9.64;100.00;99164.58;1721196;82;20425;-67
2022/10/24 05:41:31;;;;;;;;;;;;;;;9.74;100.00;99161.01;1714417;82;21042;-68
2022/10/24 05:43:58;;;;;;;;;;;;;;;9.72;100.00;99160.23;1722495;83;20512;-67
2022/10/24 05:46:24;;;;;;;;;;;;;;;9.74;100.00;99147.97;1720549;82;21180;-67
2022/10/24 05:48:50;;;;;;;;;;;;;;;9.67;100.00;99153.15;1724463;81;20611;-67
2022/10/24 05:51:17;;;;;;;;;;;;;;;9.64;100.00;99153.68;1724676;81;20597;-68
2022/10/24 05:53:43;;;;;;;;;;;;;;;9.71;100.00;99153.35;1719464;83;20194;-67
2022/10/24 05:56:10;;;;;;;;;;;;;;;9.68;100.00;99147.00;1723456;83;20105;-68
2022/10/24 05:58:36;;;;;;;;;;;;;;;9.74;100.00;99146.67;1715246;83;21178;-67
2022/10/24 06:01:03;;;;;;;;;;;;;;;9.73;100.00;99139.31;1716084;82;20164;-67
2022/10/24 06:03:30;;;;;;;;;;;;;;;9.78;100.00;99142.99;1718352;82;20179;-68
2022/10/24 06:05:56;;;;;;;;;;;;;;;9.80;100.00;99139.82;1719869;83;20502;-68
2022/10/24 06:08:22;;;;;;;;;;;;;;;9.84;100.00;99137.45;1720278;83;20516;-67
2022/10/24 06:10:50;;;;;;;;;;;;;;;9.81;100.00;99139.75;1716864;81;21073;-66
2022/10/24 06:13:16;;;;;;;;;;;;;;;9.91;100.00;99134.88;1722430;83;20092;-66
2022/10/24 06:15:43;;;;;;;;;;;;;;;9.83;100.00;99139.66;1715454;82;20212;-67
2022/10/24 06:18:10;;;;;;;;;;;;;;;9.81;100.00;99133.70;1719522;83;20476;-66
2022/10/24 06:20:37;;;;;;;;;;;;;;;9.82;100.00;99128.39;1720912;83;20176;-67
2022/10/24 06:23:03;;;;;;;;;;;;;;;9.85;100.00;99126.08;1723689;83;21162;-67
2022/10/24 06:25:29;;;;;;;;;;;;;;;9.93;100.00;99121.30;1721951;82;20115;-68
2022/10/24 06:27:56;;;;;;;;;;;;;;;9.94;100.00;99121.70;1717090;82;20755;-67
2022/10/24 06:30:23;;;;;;;;;;;;;;;9.95;100.00;99128.58;1718480;82;20175;-67
2022/10/24 06:32:49;;;;;;;;;;;;;;;9.96;100.00;99125.04;1719938;81;20462;-67
2022/10/24 06:35:15;;;;;;;;;;;;;;;10.04;100.00;99125.47;1722337;81;21122;-67
2022/10/24 06:37:42;;;;;;;;;;;;;;;10.06;100.00;99118.41;1720694;82;20151;-67
2022/10/24 06:40:09;;;;;;;;;;;;;;;10.06;100.00;99125.40;1723946;82;20203;-67
2022/10/24 06:42:35;;;;;;;;;;;;;;;10.06;100.00;99124.92;1720311;82;20163;-67
2022/10/24 06:45:02;;;;;;;;;;;;;;;10.06;100.00;99130.14;1721323;81;20251;-67
2022/10/24 06:47:28;;;;;;;;;;;;;;;10.09;100.00;99133.89;1714031;83;21298;-67
2022/10/24 06:49:54;;;;;;;;;;;;;;;10.13;100.00;99128.50;1720399;83;20116;-67
2022/10/24 06:52:20;;;;;;;;;;;;;;;10.15;100.00;99130.10;1720175;81;20207;-66
2022/10/24 06:54:48;;;;;;;;;;;;;;;10.19;100.00;99136.82;1715682;82;20527;-67
2022/10/24 06:57:14;;;;;;;;;;;;;;;10.22;100.00;99130.59;1721934;83;20252;-66
2022/10/24 06:59:40;;;;;;;;;;;;;;;10.24;100.00;99128.75;1718032;83;21027;-66
2022/10/24 07:02:10;;;;;;;;;;;;;;;10.26;100.00;99137.34;1719990;83;20221;-66
2022/10/24 07:04:36;;;;;;;;;;;;;;;10.26;100.00;99134.27;1718930;82;20163;-66
2022/10/24 07:07:03;;;;;;;;;;;;;;;10.32;100.00;99142.25;1721171;83;20105;-66
2022/10/24 07:09:29;;;;;;;;;;;;;;;10.40;100.00;99141.36;1718467;82;20197;-67
2022/10/24 07:11:56;;;;;;;;;;;;;;;10.39;100.00;99133.16;1721417;82;21164;-65
2022/10/24 07:14:24;;;;;;;;;;;;;;;10.41;100.00;99140.42;1719526;83;20719;-66
2022/10/24 07:16:51;;;;;;;;;;;;;;;10.48;100.00;99141.77;1718611;83;20180;-66
2022/10/24 07:21:50;;;;;;;;;;;;;;;10.50;100.00;99151.67;1798798;78;20222;-66
2022/10/24 07:24:18;;;;;;;;;;;;;;;10.50;100.00;99146.45;1767599;80;20156;-65
2022/10/24 07:26:45;;;;;;;;;;;;;;;10.52;100.00;99144.58;1768009;80;21407;-66
2022/10/24 07:29:11;;;;;;;;;;;;;;;10.62;100.00;99148.00;1770181;80;20092;-66
2022/10/24 07:31:37;;;;;;;;;;;;;;;10.71;100.00;99149.61;1768790;80;21011;-66
2022/10/24 07:34:06;;;;;;;;;;;;;;;10.74;100.00;99160.34;1776479;80;20116;-65
2022/10/24 07:36:33;;;;;;;;;;;;;;;10.82;100.00;99161.22;1772261;78;20470;-66
2022/10/24 07:39:00;;;;;;;;;;;;;;;10.82;100.00;99162.06;1768614;80;21284;-66
2022/10/24 07:41:29;;;;;;;;;;;;;;;10.89;100.00;99164.68;1765699;79;20110;-67
2022/10/24 07:43:57;;;;;;;;;;;;;;;10.97;100.00;99163.77;1761565;80;20245;-66
2022/10/24 07:46:24;;;;;;;;;;;;;;;11.02;100.00;99158.77;1775579;80;20194;-66
2022/10/24 07:48:51;;;;;;;;;;;;;;;11.09;100.00;99158.33;1765852;78;20428;-66
2022/10/24 07:51:18;;;;;;;;;;;;;;;11.13;100.00;99145.91;1769738;80;22023;-67
2022/10/24 07:53:45;;;;;;;;;;;;;;;11.18;100.00;99137.34;1768466;80;20242;-66
2022/10/24 07:56:14;;;;;;;;;;;;;;;11.26;100.00;99135.13;1765235;79;20122;-66
2022/10/24 07:58:42;;;;;;;;;;;;;;;11.35;100.00;99134.56;1771818;80;20146;-67
2022/10/24 08:01:12;;;;;;;;;;;;;;;11.52;100.00;99140.56;1769161;80;20086;-66
2022/10/24 08:03:38;;;;;;;;;;;;;;;11.68;100.00;99141.31;1737594;81;21452;-67
2022/10/24 08:06:06;;;;;;;;;;;;;;;11.95;100.00;99151.03;1704116;83;20137;-67
2022/10/24 08:08:35;;;;;;;;;;;;;;;12.16;100.00;99141.86;1714166;83;20108;-67
2022/10/24 08:11:07;;;;;;;;;;;;;;;12.43;100.00;99141.02;1729237;81;20203;-65
2022/10/24 08:13:33;;;;;;;;;;;;;;;12.44;100.00;99137.48;1734529;81;20151;-66
2022/10/24 08:16:00;;;;;;;;;;;;;;;12.53;100.00;99144.74;1734356;81;21120;-66
2022/10/24 08:18:26;;;;;;;;;;;;;;;12.49;100.00;99141.48;1732235;81;20433;-67
2022/10/24 08:20:58;;;;;;;;;;;;;;;12.48;100.00;99139.79;1734236;81;20183;-67
2022/10/24 08:23:25;;;;;;;;;;;;;;;12.49;100.00;99136.25;1735343;81;20097;-67
2022/10/24 08:25:51;;;;;;;;;;;;;;;12.48;100.00;99141.58;1735742;81;20130;-67
2022/10/24 08:28:17;;;;;;;;;;;;;;;12.48;100.00;99148.13;1741191;80;21234;-67
2022/10/24 08:30:43;;;;;;;;;;;;;;;12.33;100.00;99146.50;1738673;81;20482;-67
2022/10/24 08:33:10;;;;;;;;;;;;;;;12.37;100.00;99150.11;1731131;81;20112;-65
2022/10/24 08:35:36;;;;;;;;;;;;;;;12.31;100.00;99156.58;1734007;81;20182;-68
2022/10/24 08:38:03;;;;;;;;;;;;;;;12.33;100.00;99155.66;1735175;81;20155;-66
2022/10/24 08:40:29;;;;;;;;;;;;;;;12.30;100.00;99160.14;1736530;80;21687;-67
2022/10/24 08:42:56;;;;;;;;;;;;;;;12.37;100.00;99157.13;1737192;81;20194;-67
2022/10/24 08:45:26;;;;;;;;;;;;;;;12.44;100.00;99154.51;1735350;81;20187;-67
2022/10/24 08:48:04;;;;;;;;;;;;;;;12.51;100.00;99145.30;1731155;81;20473;-67
2022/10/24 08:50:33;;;;;;;;;;;;;;;12.49;100.00;99144.11;1731931;81;20191;-68
2022/10/24 08:53:15;;;;;;;;;;;;;;;12.47;100.00;99139.91;1731466;81;21521;-67
2022/10/24 08:55:52;;;;;;;;;;;;;;;12.48;100.00;99144.19;1724410;81;20491;-67
2022/10/24 08:58:30;;;;;;;;;;;;;;;12.57;100.00;99143.59;1731738;81;20104;-65
2022/10/24 09:00:59;;;;;;;;;;;;;;;12.74;100.00;99140.73;1737363;81;20517;-67
2022/10/24 09:03:32;;;;;;;;;;;;;;;12.88;100.00;99142.45;1714643;81;20149;-67
2022/10/24 09:06:02;;;;;;;;;;;;;;;13.01;100.00;99147.70;1731730;81;21079;-65
2022/10/24 09:08:53;;;;;;;;;;;;;;;13.13;100.00;99144.25;1739056;81;20177;-68
2022/10/24 09:11:41;;;;;;;;;;;;;;;13.18;100.00;99152.66;1701278;82;20512;-67
2022/10/24 09:14:13;;;;;;;;;;;;;;;13.18;100.00;99147.89;1711654;82;20187;-67
2022/10/24 09:16:43;;;;;;;;;;;;;;;13.19;100.00;99145.19;1718697;82;20088;-67
2022/10/24 09:19:14;;;;;;;;;;;;;;;13.21;100.00;99148.52;1716835;82;21797;-67
2022/10/24 09:21:42;;;;;;;;;;;;;;;13.21;100.00;99144.58;1713198;82;20183;-67
2022/10/24 09:24:15;;;;;;;;;;;;;;;13.14;100.00;99148.58;1721082;82;20154;-67
2022/10/24 09:26:44;;;;;;;;;;;;;;;13.24;100.00;99153.19;1714895;82;20157;-67
2022/10/24 09:29:10;;;;;;;;;;;;;;;13.13;100.00;99149.50;1714169;82;20111;-67
2022/10/24 09:31:37;;;;;;;;;;;;;;;13.10;100.00;99162.81;1725360;82;22271;-68
2022/10/24 09:34:05;;;;;;;;;;;;;;;13.12;100.00;99168.80;1715510;81;20188;-67
2022/10/24 09:36:31;;;;;;;;;;;;;;;13.06;100.00;99163.97;1715475;81;20207;-68
2022/10/24 09:39:01;;;;;;;;;;;;;;;13.08;100.00;99162.09;1720280;82;20581;-67
2022/10/24 09:41:29;;;;;;;;;;;;;;;13.09;100.00;99161.14;1709861;82;20122;-67
2022/10/24 09:43:58;;;;;;;;;;;;;;;13.11;100.00;99159.27;1716923;82;21091;-67
2022/10/24 09:46:36;;;;;;;;;;;;;;;13.17;100.00;99161.47;1717971;82;20112;-68
2022/10/24 09:49:15;;;;;;;;;;;;;;;13.25;100.00;99152.23;1712204;82;20556;-67
2022/10/24 09:51:51;;;;;;;;;;;;;;;13.27;100.00;99145.15;1719324;82;21036;-68
2022/10/24 09:54:25;;;;;;;;;;;;;;;13.33;100.00;99139.48;1714606;82;20170;-68
2022/10/24 09:56:54;;;;;;;;;;;;;;;13.38;100.00;99139.55;1715778;82;21164;-66
2022/10/24 09:59:43;;;;;;;;;;;;;;;13.46;100.00;99145.58;1715961;82;20309;-67
2022/10/24 10:02:28;;;;;;;;;;;;;;;13.58;100.00;99150.01;1718020;82;20112;-69
2022/10/24 10:05:04;;;;;;;;;;;;;;;13.61;100.00;99156.34;1712291;82;20167;-67
2022/10/24 10:07:34;;;;;;;;;;;;;;;13.62;100.00;99155.87;1720439;82;20111;-67
2022/10/24 10:10:19;;;;;;;;;;;;;;;13.69;100.00;99156.28;1715159;81;21138;-68
2022/10/24 10:12:58;;;;;;;;;;;;;;;13.75;100.00;99150.60;1720102;82;20167;-68
2022/10/24 10:15:40;;;;;;;;;;;;;;;13.79;100.00;99144.21;1674308;84;20156;-69
2022/10/24 10:18:28;;;;;;;;;;;;;;;13.79;100.00;99136.34;1610175;88;20462;-67
2022/10/24 10:21:18;;;;;;;;;;;;;;;13.78;100.00;99128.08;1613180;87;20267;-68
2022/10/24 10:23:50;;;;;;;;;;;;;;;13.69;100.00;99122.17;1605480;87;21193;-68
2022/10/24 10:26:31;;;;;;;;;;;;;;;13.66;100.00;99121.44;1608508;87;20174;-66
2022/10/24 10:29:04;;;;;;;;;;;;;;;13.65;100.00;99122.39;1599608;87;20477;-66
2022/10/24 10:31:45;;;;;;;;;;;;;;;13.63;100.00;99113.78;1601408;87;20158;-66
2022/10/24 10:34:18;;;;;;;;;;;;;;;13.59;100.00;99109.70;1599850;87;20195;-66
2022/10/24 10:37:11;;;;;;;;;;;;;;;13.55;100.00;99106.91;1604386;87;21927;-66
2022/10/24 10:39:50;;;;;;;;;;;;;;;13.58;100.00;99110.66;1604180;87;20254;-67
2022/10/24 10:42:20;;;;;;;;;;;;;;;13.58;100.00;99113.28;1597442;87;20198;-66
2022/10/24 10:44:50;;;;;;;;;;;;;;;13.62;100.00;99119.98;1596659;87;20186;-67
2022/10/24 10:47:25;;;;;;;;;;;;;;;13.74;100.00;99122.70;1605518;87;20217;-67
2022/10/24 10:49:54;;;;;;;;;;;;;;;13.90;100.00;99125.92;1607678;87;21573;-67
2022/10/24 10:52:33;;;;;;;;;;;;;;;14.01;100.00;99116.82;1619296;87;20238;-67
2022/10/24 10:55:15;;;;;;;;;;;;;;;14.09;100.00;99107.09;1697065;83;20150;-67
2022/10/24 10:57:57;;;;;;;;;;;;;;;14.15;100.00;99108.44;1693797;83;20147;-66
2022/10/24 11:00:39;;;;;;;;;;;;;;;14.32;100.00;99089.68;1704052;83;20094;-66
2022/10/24 11:03:09;;;;;;;;;;;;;;;14.41;100.00;99089.00;1704616;83;21139;-67
2022/10/24 11:05:56;;;;;;;;;;;;;;;14.50;100.00;99088.31;1706554;82;20613;-66
2022/10/24 11:08:32;;;;;;;;;;;;;;;14.58;100.00;99089.59;1705141;82;20205;-66
2022/10/24 11:11:02;;;;;;;;;;;;;;;14.71;100.00;99085.94;1703435;82;20146;-67
2022/10/24 11:13:33;;;;;;;;;;;;;;;14.80;100.00;99077.84;1709717;83;20160;-67
2022/10/24 11:16:04;;;;;;;;;;;;;;;14.94;100.00;99078.95;1680986;83;21140;-66
2022/10/24 11:18:39;;;;;;;;;;;;;;;15.10;100.00;99076.48;1700779;83;20147;-67
2022/10/24 11:21:16;;;;;;;;;;;;;;;15.19;100.00;99079.72;1705733;83;20221;-67
2022/10/24 11:24:08;;;;;;;;;;;;;;;15.25;100.00;99077.93;1701235;83;20177;-67
2022/10/24 11:26:38;;;;;;;;;;;;;;;15.41;100.00;99071.85;1685016;84;20510;-67
2022/10/24 11:29:25;;;;;;;;;;;;;;;15.48;100.00;99072.69;1703653;83;22129;-67
2022/10/24 11:31:54;;;;;;;;;;;;;;;15.49;100.00;99076.98;1719432;82;20155;-67
2022/10/24 11:34:31;;;;;;;;;;;;;;;15.59;100.00;99074.00;1713449;82;20215;-67
2022/10/24 11:37:04;;;;;;;;;;;;;;;15.62;100.00;99076.39;1711982;82;20126;-66
2022/10/24 11:39:34;;;;;;;;;;;;;;;15.62;99.74;99071.13;1717871;82;20170;-67
2022/10/24 11:42:22;;;;;;;;;;;;;;;15.59;100.00;99066.94;1715021;82;21463;-67
2022/10/24 11:45:05;;;;;;;;;;;;;;;15.69;100.00;99061.84;1710293;82;20107;-67
2022/10/24 11:47:41;;;;;;;;;;;;;;;15.76;100.00;99060.38;1675618;85;20272;-67
2022/10/24 11:50:27;;;;;;;;;;;;;;;15.98;100.00;99065.27;1674647;85;20216;-66
2022/10/24 11:53:06;;;;;;;;;;;;;;;16.16;100.00;99065.11;1673665;85;20260;-66
2022/10/24 11:55:37;;;;;;;;;;;;;;;16.39;100.00;99054.50;1620195;88;21133;-66
2022/10/24 11:58:07;;;;;;;;;;;;;;;16.55;100.00;99053.11;1619822;88;20240;-67
2022/10/24 12:01:06;;;;;;;;;;;;;;;16.66;99.91;99053.52;1617934;87;20191;-67
2022/10/24 12:03:54;;;;;;;;;;;;;;;16.70;99.46;99050.99;1618721;87;20246;-66
2022/10/24 12:06:39;;;;;;;;;;;;;;;16.70;99.08;99048.36;1619664;87;20176;-67
2022/10/24 12:09:09;;;;;;;;;;;;;;;16.71;98.70;99050.02;1617303;88;21347;-68
2022/10/24 12:11:51;;;;;;;;;;;;;;;16.73;99.03;99042.83;1618295;88;20212;-68
2022/10/24 12:14:21;;;;;;;;;;;;;;;16.81;98.97;99045.35;1618046;87;20192;-67
2022/10/24 12:16:53;;;;;;;;;;;;;;;16.74;98.64;99039.22;1619066;87;20177;-66
2022/10/24 12:19:20;;;;;;;;;;;;;;;16.67;98.29;99034.61;1620435;87;20248;-66
2022/10/24 12:21:55;;;;;;;;;;;;;;;16.67;98.82;99040.70;1620665;87;21135;-67
2022/10/24 12:24:31;;;;;;;;;;;;;;;16.83;98.48;99034.17;1629737;85;20159;-67
2022/10/24 12:27:20;;;;;;;;;;;;;;;16.71;98.42;99033.37;1652060;86;20179;-67
2022/10/24 12:29:49;;;;;;;;;;;;;;;16.73;98.96;99027.02;1653252;86;20157;-66
2022/10/24 12:32:37;;;;;;;;;;;;;;;16.83;98.41;99026.27;1677631;82;20131;-66
2022/10/24 12:35:22;;;;;;;;;;;;;;;16.66;97.54;99028.47;1726903;82;21046;-68
2022/10/24 12:37:49;;;;;;;;;;;;;;;16.49;96.89;99027.73;1650953;85;20270;-66
2022/10/24 12:40:51;;;;;;;;;;;;;;;16.29;96.76;99031.52;1658669;84;20286;-66
2022/10/24 12:43:30;;;;;;;;;;;;;;;16.09;96.20;99027.05;1658162;84;20172;-67
2022/10/24 12:46:03;;;;;;;;;;;;;;;15.78;96.96;99026.05;1657321;85;20470;-66
2022/10/24 12:48:35;;;;;;;;;;;;;;;15.59;96.97;99031.90;1656667;84;21126;-66
2022/10/24 12:51:17;;;;;;;;;;;;;;;15.38;96.85;99037.90;1662006;84;20564;-66
2022/10/24 12:54:17;;;;;;;;;;;;;;;15.26;96.82;99033.57;1613029;88;20211;-66
2022/10/24 12:56:54;;;;;;;;;;;;;;;15.11;96.47;99033.45;1612640;88;20231;-66
2022/10/24 12:59:36;;;;;;;;;;;;;;;14.95;96.94;99043.81;1618688;88;20211;-67
2022/10/24 13:02:21;;;;;;;;;;;;;;;14.87;96.91;99044.91;1613275;88;21298;-67
2022/10/24 13:04:54;;;;;;;;;;;;;;;14.75;97.25;99055.00;1616010;88;20247;-66